Time;durP1;ratioP1;P1;durP2;ratioP2;P2;SDS_P1;SDS_P2;PMS_P1;PMS_P2;Temp;Humidity;BMP_temperature;BMP_pressure;BME280_temperature;BME280_humidity;BME280_pressure;Samples;Min_cycle;Max_cycle;Signal;HPM_P1;HPM_P2
2024/02/05 00:02:02;;;;;;;4.47;1.30;;;13.10;37.40;;;;;;5075305;28;20863;-71
2024/02/05 00:04:30;;;;;;;4.20;1.57;;;13.10;37.40;;;;;;5081826;28;20470;-72
2024/02/05 00:06:57;;;;;;;4.20;1.63;;;13.10;37.20;;;;;;5094757;28;21169;-71
2024/02/05 00:09:24;;;;;;;6.20;1.30;;;13.10;36.90;;;;;;5094764;28;20488;-72
2024/02/05 00:11:51;;;;;;;2.07;0.97;;;13.10;37.00;;;;;;5088993;28;20969;-71
2024/02/05 00:14:18;;;;;;;3.90;1.20;;;13.10;37.00;;;;;;5086520;28;20510;-72
2024/02/05 00:16:46;;;;;;;3.50;1.40;;;13.10;36.90;;;;;;5093316;28;20484;-71
2024/02/05 00:19:14;;;;;;;5.30;2.00;;;13.10;36.90;;;;;;5086897;28;20529;-71
2024/02/05 00:21:41;;;;;;;3.30;1.23;;;13.10;36.80;;;;;;5074869;28;20464;-71
2024/02/05 00:24:08;;;;;;;4.40;1.83;;;13.10;36.80;;;;;;5074519;28;20838;-71
2024/02/05 00:26:35;;;;;;;7.10;2.60;;;13.10;36.90;;;;;;5074688;28;20770;-71
2024/02/05 00:29:05;;;;;;;6.03;1.27;;;13.20;37.20;;;;;;5074789;28;20551;-71
2024/02/05 00:31:32;;;;;;;4.20;1.10;;;13.20;37.10;;;;;;5074334;28;20435;-71
2024/02/05 00:33:59;;;;;;;3.50;1.33;;;13.20;37.10;;;;;;5074484;28;20543;-70
2024/02/05 00:36:27;;;;;;;5.37;1.27;;;13.20;37.00;;;;;;5074603;28;20988;-72
2024/02/05 00:38:54;;;;;;;2.80;1.33;;;13.20;37.70;;;;;;5074536;28;20450;-71
2024/02/05 00:41:21;;;;;;;8.30;1.30;;;13.30;36.80;;;;;;5074582;28;20515;-72
2024/02/05 00:43:48;;;;;;;3.57;1.43;;;13.20;36.60;;;;;;5074265;28;20844;-71
2024/02/05 00:46:22;;;;;;;5.80;1.77;;;13.30;36.90;;;;;;5073805;28;20519;-71
2024/02/05 00:48:49;;;;;;;3.53;1.60;;;13.20;36.50;;;;;;5074899;28;20432;-71
2024/02/05 00:51:16;;;;;;;4.33;1.53;;;13.30;36.40;;;;;;5074459;28;20536;-71
2024/02/05 00:53:45;;;;;;;5.10;1.70;;;13.30;36.40;;;;;;5074967;28;20555;-71
2024/02/05 00:56:11;;;;;;;4.03;1.23;;;13.30;36.30;;;;;;5074793;28;20528;-71
2024/02/05 00:58:38;;;;;;;4.00;1.93;;;13.30;36.30;;;;;;5074341;28;20515;-72
2024/02/05 01:01:05;;;;;;;6.27;2.00;;;13.30;36.30;;;;;;5074515;28;20530;-71
2024/02/05 01:03:32;;;;;;;4.17;1.33;;;13.40;36.40;;;;;;5074576;28;20515;-71
2024/02/05 01:05:59;;;;;;;7.57;2.37;;;13.40;36.10;;;;;;5074268;28;20464;-72
2024/02/05 01:08:26;;;;;;;4.07;1.77;;;13.40;36.10;;;;;;5074495;28;20520;-72
2024/02/05 01:10:56;;;;;;;4.57;1.83;;;13.40;36.30;;;;;;5073689;28;20468;-72
2024/02/05 01:13:23;;;;;;;4.70;2.30;;;13.40;36.10;;;;;;5074300;28;20800;-71
2024/02/05 01:15:51;;;;;;;4.00;1.57;;;13.40;36.20;;;;;;5075035;28;20912;-71
2024/02/05 01:18:18;;;;;;;4.87;2.17;;;13.50;36.10;;;;;;5074244;28;20543;-71
2024/02/05 01:20:45;;;;;;;4.23;1.60;;;13.50;36.20;;;;;;5074304;28;20522;-71
2024/02/05 01:23:12;;;;;;;5.70;1.50;;;13.40;36.10;;;;;;5074237;28;20432;-71
2024/02/05 01:25:40;;;;;;;4.70;1.23;;;13.50;36.30;;;;;;5074394;28;20837;-71
2024/02/05 01:28:08;;;;;;;4.70;1.33;;;13.40;36.20;;;;;;5074153;28;20432;-71
2024/02/05 01:30:35;;;;;;;3.50;1.67;;;13.50;36.40;;;;;;5073196;28;20538;-72
2024/02/05 01:33:02;;;;;;;10.50;1.57;;;13.40;36.30;;;;;;5074024;28;20555;-72
2024/02/05 01:35:29;;;;;;;3.80;1.37;;;13.50;36.40;;;;;;5074020;28;20458;-72
2024/02/05 01:37:56;;;;;;;3.73;1.27;;;13.40;36.10;;;;;;5073635;28;20516;-71
2024/02/05 01:40:23;;;;;;;8.30;1.30;;;13.40;36.30;;;;;;5073848;28;20507;-72
2024/02/05 01:42:50;;;;;;;8.03;2.73;;;13.40;36.30;;;;;;5073664;28;21001;-72
2024/02/05 01:45:18;;;;;;;3.23;1.30;;;13.40;36.30;;;;;;5073846;28;20465;-71
2024/02/05 01:47:45;;;;;;;6.40;1.70;;;13.40;36.20;;;;;;5073970;28;20534;-72
2024/02/05 01:50:14;;;;;;;2.93;1.30;;;13.40;36.30;;;;;;5073656;28;20522;-71
2024/02/05 01:52:45;;;;;;;4.43;1.47;;;13.40;36.20;;;;;;5073749;28;20563;-72
2024/02/05 01:55:14;;;;;;;3.33;1.20;;;13.40;36.20;;;;;;5073801;28;20503;-71
2024/02/05 01:57:42;;;;;;;4.77;1.50;;;13.40;35.90;;;;;;5073796;28;20523;-71
2024/02/05 02:00:11;;;;;;;5.30;1.27;;;13.40;36.10;;;;;;5073769;28;20522;-72
2024/02/05 02:02:40;;;;;;;9.43;2.17;;;13.40;36.00;;;;;;5073418;28;20913;-72
2024/02/05 02:05:07;;;;;;;2.20;1.00;;;13.40;35.90;;;;;;5073461;28;20926;-71
2024/02/05 02:07:34;;;;;;;5.63;1.60;;;13.40;36.10;;;;;;5073364;28;20965;-71
2024/02/05 02:10:02;;;;;;;5.60;1.60;;;13.40;35.90;;;;;;5073389;28;20984;-71
2024/02/05 02:12:29;;;;;;;6.23;1.57;;;13.40;36.00;;;;;;5073742;28;20505;-72
2024/02/05 02:14:56;;;;;;;3.10;1.50;;;13.40;36.10;;;;;;5073442;28;20464;-71
2024/02/05 02:17:24;;;;;;;4.83;2.10;;;13.40;36.20;;;;;;5091948;28;20506;-72
2024/02/05 02:19:54;;;;;;;3.23;1.17;;;13.40;36.10;;;;;;5093705;28;20502;-72
2024/02/05 02:22:33;;;;;;;4.10;1.07;;;13.40;35.90;;;;;;5093429;28;20451;-72
2024/02/05 02:25:02;;;;;;;4.63;1.63;;;13.40;35.80;;;;;;5093788;28;20764;-72
2024/02/05 02:27:29;;;;;;;4.37;1.60;;;13.40;35.70;;;;;;5093336;28;20439;-72
2024/02/05 02:29:57;;;;;;;3.97;1.47;;;13.40;35.50;;;;;;5078791;28;20478;-72
2024/02/05 02:32:33;;;;;;;5.33;1.80;;;13.40;35.70;;;;;;5088677;28;20462;-71
2024/02/05 02:35:06;;;;;;;6.70;1.90;;;13.40;35.70;;;;;;5093308;28;20454;-71
2024/02/05 02:37:54;;;;;;;5.10;1.43;;;13.40;35.80;;;;;;5093877;28;20463;-71
2024/02/05 02:40:24;;;;;;;5.40;1.87;;;13.30;35.70;;;;;;5093679;28;20827;-72
2024/02/05 02:42:54;;;;;;;6.73;1.90;;;13.30;35.50;;;;;;5096270;28;20431;-71
2024/02/05 02:45:22;;;;;;;11.87;2.10;;;13.30;35.40;;;;;;5096334;28;20494;-71
2024/02/05 02:47:49;;;;;;;7.40;1.53;;;13.40;35.40;;;;;;5097519;28;20538;-71
2024/02/05 02:50:22;;;;;;;5.00;1.43;;;13.30;35.40;;;;;;5097448;28;20509;-71
2024/02/05 02:52:49;;;;;;;6.60;1.33;;;13.40;35.50;;;;;;5097373;28;20561;-71
2024/02/05 02:55:16;;;;;;;3.50;1.30;;;13.30;35.30;;;;;;5096898;28;21007;-71
2024/02/05 02:57:44;;;;;;;5.10;1.60;;;13.30;35.20;;;;;;5096922;28;20465;-71
2024/02/05 03:00:12;;;;;;;3.13;1.33;;;13.30;35.10;;;;;;5095667;28;20506;-71
2024/02/05 03:02:50;;;;;;;4.17;1.30;;;13.30;35.10;;;;;;5096771;28;20441;-71
2024/02/05 03:05:17;;;;;;;4.07;1.40;;;13.30;35.20;;;;;;5097326;28;20419;-71
2024/02/05 03:07:43;;;;;;;3.40;1.17;;;13.30;35.00;;;;;;5097122;28;20526;-71
2024/02/05 03:10:10;;;;;;;4.90;2.23;;;13.30;34.60;;;;;;5097121;28;20517;-72
2024/02/05 03:12:37;;;;;;;9.37;2.00;;;13.30;34.60;;;;;;5096198;28;20521;-72
2024/02/05 03:15:07;;;;;;;3.03;1.20;;;13.30;34.80;;;;;;5097000;28;20838;-72
2024/02/05 03:17:34;;;;;;;4.63;1.40;;;13.30;34.70;;;;;;5096758;28;20489;-72
2024/02/05 03:20:01;;;;;;;16.27;2.70;;;13.30;34.50;;;;;;5096727;28;20510;-71
2024/02/05 03:22:28;;;;;;;2.83;1.50;;;13.40;34.40;;;;;;5096841;28;20435;-71
2024/02/05 03:24:55;;;;;;;7.03;1.83;;;13.40;34.50;;;;;;5096854;28;20513;-71
2024/02/05 03:27:22;;;;;;;5.80;1.40;;;13.30;34.30;;;;;;5095959;28;20514;-71
2024/02/05 03:29:52;;;;;;;3.40;1.33;;;13.30;34.40;;;;;;5096673;28;20474;-72
2024/02/05 03:32:20;;;;;;;4.77;1.27;;;13.40;34.30;;;;;;5096766;28;20431;-72
2024/02/05 03:34:47;;;;;;;5.70;1.80;;;13.30;34.20;;;;;;5096304;28;20554;-72
2024/02/05 03:37:14;;;;;;;3.73;1.30;;;13.40;34.40;;;;;;5096253;28;20896;-72
2024/02/05 03:39:41;;;;;;;4.23;1.30;;;13.30;34.30;;;;;;5096529;28;20431;-72
2024/02/05 03:42:08;;;;;;;4.03;1.33;;;13.30;34.30;;;;;;5096451;28;20466;-71
2024/02/05 03:44:35;;;;;;;5.80;1.40;;;13.30;34.50;;;;;;5096045;28;20952;-72
2024/02/05 03:47:02;;;;;;;2.87;1.40;;;13.30;34.30;;;;;;5095884;28;20432;-72
2024/02/05 03:49:31;;;;;;;4.33;2.37;;;13.30;34.20;;;;;;5096260;28;20515;-71
2024/02/05 03:51:58;;;;;;;6.97;1.73;;;13.30;34.10;;;;;;5096635;28;20438;-71
2024/02/05 03:54:25;;;;;;;5.23;1.33;;;13.30;33.90;;;;;;5094460;28;20522;-71
2024/02/05 03:56:52;;;;;;;5.57;1.40;;;13.30;34.00;;;;;;5096169;28;20431;-71
2024/02/05 03:59:19;;;;;;;9.03;2.50;;;13.30;33.80;;;;;;5096106;28;20431;-72
2024/02/05 04:01:46;;;;;;;5.43;1.53;;;13.40;33.60;;;;;;5096144;28;20470;-71
2024/02/05 04:04:13;;;;;;;3.30;1.47;;;13.40;33.70;;;;;;5095747;28;20467;-71
2024/02/05 04:06:41;;;;;;;3.20;1.40;;;13.40;34.00;;;;;;5095382;28;20909;-72
2024/02/05 04:09:08;;;;;;;5.80;2.00;;;13.30;34.00;;;;;;5095644;28;20525;-71
2024/02/05 04:11:38;;;;;;;4.20;1.60;;;13.30;34.10;;;;;;5095857;28;20518;-71
2024/02/05 04:14:06;;;;;;;5.60;2.17;;;13.30;34.10;;;;;;5095627;28;20957;-72
2024/02/05 04:16:33;;;;;;;5.63;2.10;;;13.30;34.20;;;;;;5094927;28;21020;-72
2024/02/05 04:19:00;;;;;;;6.80;1.90;;;13.30;34.30;;;;;;5094673;28;20773;-71
2024/02/05 04:21:27;;;;;;;6.20;2.20;;;13.20;34.20;;;;;;5095681;28;20463;-71
2024/02/05 04:23:55;;;;;;;5.20;1.30;;;13.20;34.40;;;;;;5095339;28;20530;-72
2024/02/05 04:26:22;;;;;;;7.80;1.73;;;13.20;34.40;;;;;;5095257;28;20471;-72
2024/02/05 04:28:50;;;;;;;3.07;1.27;;;13.10;34.30;;;;;;5095741;28;20470;-72
2024/02/05 04:31:17;;;;;;;4.90;1.17;;;13.20;34.30;;;;;;5095181;28;20510;-72
2024/02/05 04:33:43;;;;;;;8.80;2.00;;;13.10;34.20;;;;;;5095513;28;20555;-72
2024/02/05 04:36:12;;;;;;;5.10;2.13;;;13.10;34.30;;;;;;5095449;28;20571;-71
2024/02/05 04:38:39;;;;;;;4.53;1.40;;;13.00;34.40;;;;;;5094925;28;20431;-71
2024/02/05 04:41:09;;;;;;;5.40;1.73;;;13.00;34.50;;;;;;5095283;28;20521;-71
2024/02/05 04:43:38;;;;;;;5.53;1.90;;;13.00;34.50;;;;;;5094886;28;20470;-71
2024/02/05 04:46:06;;;;;;;3.80;1.30;;;12.90;34.50;;;;;;5094730;28;20457;-71
2024/02/05 04:48:33;;;;;;;4.63;1.50;;;12.90;34.60;;;;;;5095017;28;20524;-71
2024/02/05 04:51:00;;;;;;;4.57;1.80;;;12.90;34.70;;;;;;5094789;28;20518;-72
2024/02/05 04:53:27;;;;;;;6.23;2.50;;;12.90;34.70;;;;;;5095044;28;20470;-72
2024/02/05 04:55:54;;;;;;;6.97;1.60;;;12.90;34.70;;;;;;5093566;28;20932;-72
2024/02/05 04:58:22;;;;;;;5.43;2.20;;;12.90;34.60;;;;;;5094652;28;20519;-72
2024/02/05 05:00:49;;;;;;;5.03;3.40;;;12.90;34.80;;;;;;5094805;28;20466;-72
2024/02/05 05:03:16;;;;;;;9.10;2.50;;;12.80;35.00;;;;;;5094464;28;20938;-72
2024/02/05 05:05:43;;;;;;;5.60;2.10;;;12.80;35.10;;;;;;5094730;28;20826;-72
2024/02/05 05:08:10;;;;;;;9.23;2.60;;;12.70;35.30;;;;;;5094451;28;20467;-71
2024/02/05 05:10:37;;;;;;;4.33;1.37;;;12.70;35.40;;;;;;5094820;28;20498;-71
2024/02/05 05:13:05;;;;;;;6.43;2.00;;;12.70;35.50;;;;;;5094639;28;20436;-71
2024/02/05 05:15:33;;;;;;;5.20;1.70;;;12.70;35.70;;;;;;5094894;28;20438;-72
2024/02/05 05:18:00;;;;;;;12.90;3.40;;;12.60;35.70;;;;;;5090770;28;20546;-71
2024/02/05 05:20:27;;;;;;;4.43;1.77;;;12.60;35.90;;;;;;5094246;28;20506;-71
2024/02/05 05:22:54;;;;;;;5.70;2.40;;;12.50;36.10;;;;;;5094530;28;20518;-71
2024/02/05 05:25:21;;;;;;;9.17;3.97;;;12.50;36.30;;;;;;5094029;28;20508;-71
2024/02/05 05:27:48;;;;;;;8.93;2.70;;;12.40;36.60;;;;;;5094385;28;20466;-71
2024/02/05 05:30:17;;;;;;;7.80;3.30;;;12.40;36.80;;;;;;5093975;28;20435;-72
2024/02/05 05:32:45;;;;;;;6.97;2.33;;;12.40;38.30;;;;;;5093991;28;20522;-71
2024/02/05 05:35:12;;;;;;;8.37;3.77;;;12.30;37.80;;;;;;5094358;28;20987;-71
2024/02/05 05:37:40;;;;;;;7.07;4.03;;;12.20;38.30;;;;;;5075491;28;20520;-70
2024/02/05 05:40:09;;;;;;;4.67;2.63;;;12.10;38.80;;;;;;5075698;28;20901;-71
2024/02/05 05:42:36;;;;;;;9.30;3.20;;;12.00;39.20;;;;;;5092767;28;20514;-71
2024/02/05 05:45:04;;;;;;;8.60;3.03;;;11.90;40.00;;;;;;5093578;28;20439;-71
2024/02/05 05:47:31;;;;;;;8.65;3.42;;;11.80;40.00;;;;;;5093843;28;20428;-71
2024/02/05 05:49:59;;;;;;;8.60;3.85;;;11.70;40.30;;;;;;5093619;28;20275;-71
2024/02/05 05:52:27;;;;;;;8.43;3.63;;;11.60;40.70;;;;;;5093936;28;20223;-71
2024/02/05 05:54:54;;;;;;;8.75;3.70;;;11.50;40.70;;;;;;5084020;28;20217;-71
2024/02/05 05:57:21;;;;;;;7.13;3.57;;;11.50;41.20;;;;;;5073668;28;20236;-71
2024/02/05 05:59:48;;;;;;;7.47;4.00;;;11.40;41.50;;;;;;5073659;28;20432;-71
2024/02/05 06:02:15;;;;;;;6.63;3.83;;;11.30;42.00;;;;;;5073659;28;20225;-71
2024/02/05 06:04:42;;;;;;;8.23;4.80;;;11.20;42.20;;;;;;5073687;28;20193;-71
2024/02/05 06:07:11;;;;;;;7.93;3.80;;;11.10;42.70;;;;;;5073859;28;20281;-71
2024/02/05 06:09:38;;;;;;;7.55;4.22;;;11.00;42.90;;;;;;5088370;28;20209;-71
2024/02/05 06:12:05;;;;;;;10.70;4.40;;;11.00;42.70;;;;;;5093876;28;20582;-71
2024/02/05 06:14:32;;;;;;;5.60;3.58;;;10.80;43.00;;;;;;5093627;28;20300;-71
2024/02/05 06:16:59;;;;;;;7.53;4.00;;;10.80;43.40;;;;;;5096623;28;20196;-71
2024/02/05 06:19:26;;;;;;;10.75;4.70;;;10.70;43.50;;;;;;5100772;28;20266;-71
2024/02/05 06:21:53;;;;;;;8.77;4.72;;;10.60;43.60;;;;;;5100123;28;20279;-71
2024/02/05 06:24:22;;;;;;;7.25;4.43;;;10.60;43.80;;;;;;5085283;28;20269;-71
2024/02/05 06:26:49;;;;;;;9.15;4.57;;;10.60;44.00;;;;;;5080017;28;20273;-71
2024/02/05 06:29:16;;;;;;;9.45;5.55;;;10.50;43.80;;;;;;5098702;28;20263;-71
2024/02/05 06:31:43;;;;;;;11.68;3.85;;;10.40;43.90;;;;;;5088458;28;20231;-71
2024/02/05 06:34:10;;;;;;;11.13;5.20;;;10.40;44.40;;;;;;5097981;28;20236;-71
2024/02/05 06:36:37;;;;;;;7.05;3.80;;;10.20;44.50;;;;;;5099879;28;20246;-71
2024/02/05 06:39:04;;;;;;;10.57;4.45;;;10.20;45.00;;;;;;5091948;28;20263;-71
2024/02/05 06:41:33;;;;;;;9.70;4.18;;;10.20;45.10;;;;;;5079573;28;20186;-70
2024/02/05 06:44:00;;;;;;;11.52;4.50;;;10.10;45.10;;;;;;5079729;28;20299;-71
2024/02/05 06:46:27;;;;;;;7.90;4.18;;;10.00;45.30;;;;;;5080882;28;20241;-70
2024/02/05 06:48:54;;;;;;;10.45;4.70;;;10.00;45.60;;;;;;5079648;28;20273;-71
2024/02/05 06:51:21;;;;;;;12.95;4.65;;;9.90;46.90;;;;;;5079536;28;20280;-70
2024/02/05 06:53:48;;;;;;;9.23;3.97;;;9.80;47.00;;;;;;5079309;28;20281;-70
2024/02/05 06:56:16;;;;;;;9.20;4.05;;;9.80;47.60;;;;;;5079832;28;20269;-71
2024/02/05 06:58:44;;;;;;;8.15;3.80;;;9.80;48.10;;;;;;5083903;28;20224;-71
2024/02/05 07:01:12;;;;;;;11.57;3.70;;;9.80;48.40;;;;;;5088170;28;20285;-71
2024/02/05 07:03:39;;;;;;;16.92;4.10;;;9.70;48.30;;;;;;5079637;28;20209;-71
2024/02/05 07:06:06;;;;;;;11.18;4.65;;;9.70;48.40;;;;;;5087034;28;20233;-71
2024/02/05 07:08:33;;;;;;;10.60;4.55;;;9.60;48.80;;;;;;5097332;28;20658;-70
2024/02/05 07:11:00;;;;;;;12.73;4.00;;;9.50;48.90;;;;;;5097375;28;20268;-71
2024/02/05 07:13:27;;;;;;;6.00;3.40;;;9.50;49.50;;;;;;5099497;28;20276;-71
2024/02/05 07:15:56;;;;;;;9.90;3.90;;;9.50;49.40;;;;;;5099845;28;20616;-71
2024/02/05 07:18:23;;;;;;;8.13;4.20;;;9.60;49.80;;;;;;5099594;28;20248;-71
2024/02/05 07:20:50;;;;;;;11.63;4.35;;;9.60;49.50;;;;;;5099776;28;20267;-71
2024/02/05 07:23:16;;;;;;;8.00;3.83;;;9.60;49.80;;;;;;5099802;28;20276;-71
2024/02/05 07:25:44;;;;;;;9.40;3.42;;;9.70;49.90;;;;;;5099810;28;20272;-71
2024/02/05 07:28:11;;;;;;;13.23;4.65;;;9.70;50.10;;;;;;5098462;28;20189;-71
2024/02/05 07:30:38;;;;;;;10.52;5.28;;;9.90;50.20;;;;;;5096553;28;20272;-71
2024/02/05 07:33:06;;;;;;;13.75;5.28;;;9.90;50.00;;;;;;5096225;28;20271;-71
2024/02/05 07:35:33;;;;;;;8.27;3.42;;;10.10;49.20;;;;;;5096326;28;20249;-71
2024/02/05 07:38:00;;;;;;;9.32;4.15;;;10.30;49.20;;;;;;5096349;28;20181;-71
2024/02/05 07:40:27;;;;;;;8.25;3.83;;;10.40;49.00;;;;;;5096131;28;20280;-71
2024/02/05 07:42:54;;;;;;;7.13;3.53;;;10.60;48.80;;;;;;5096040;28;20185;-71
2024/02/05 07:45:21;;;;;;;6.68;3.95;;;10.80;48.30;;;;;;5096349;28;20221;-71
2024/02/05 07:47:48;;;;;;;6.68;3.88;;;10.90;48.30;;;;;;5096332;28;20592;-71
2024/02/05 07:50:17;;;;;;;8.13;4.05;;;11.10;48.00;;;;;;5096003;28;20717;-71
2024/02/05 07:52:44;;;;;;;6.15;3.92;;;11.30;47.80;;;;;;5095875;28;20268;-71
2024/02/05 07:55:11;;;;;;;8.77;4.27;;;11.50;47.60;;;;;;5095787;28;20236;-71
2024/02/05 07:57:38;;;;;;;8.13;3.80;;;11.80;46.90;;;;;;5095213;28;20426;-71
2024/02/05 08:00:12;;;;;;;5.93;3.88;;;12.00;46.60;;;;;;5095465;28;20292;-71
2024/02/05 08:02:39;;;;;;;8.05;4.85;;;12.20;46.40;;;;;;5095482;28;20237;-71
2024/02/05 08:05:06;;;;;;;5.77;3.50;;;12.40;45.80;;;;;;5095564;28;20201;-71
2024/02/05 08:07:35;;;;;;;9.37;4.30;;;12.60;45.30;;;;;;5095313;28;21000;-71
2024/02/05 08:10:04;;;;;;;7.47;4.17;;;12.90;44.70;;;;;;5095436;28;20501;-71
2024/02/05 08:12:31;;;;;;;6.87;4.00;;;13.20;44.80;;;;;;5095930;28;20439;-71
2024/02/05 08:14:57;;;;;;;7.20;4.17;;;13.40;44.10;;;;;;5095197;28;20549;-71
2024/02/05 08:17:24;;;;;;;7.13;4.17;;;13.60;43.60;;;;;;5095202;28;20845;-71
2024/02/05 08:19:51;;;;;;;7.03;4.07;;;13.90;43.30;;;;;;5095520;28;20514;-71
2024/02/05 08:22:18;;;;;;;7.00;4.30;;;14.20;42.70;;;;;;5095075;28;20847;-71
2024/02/05 08:24:47;;;;;;;9.63;5.20;;;14.50;42.30;;;;;;5095177;28;20467;-71
2024/02/05 08:27:13;;;;;;;9.90;4.20;;;14.90;41.20;;;;;;5094926;28;20433;-71
2024/02/05 08:29:41;;;;;;;14.27;4.20;;;15.10;40.90;;;;;;5095119;28;20947;-72
2024/02/05 08:32:08;;;;;;;7.33;4.03;;;15.40;39.70;;;;;;5095340;28;20509;-71
2024/02/05 08:34:37;;;;;;;9.20;3.97;;;15.70;39.60;;;;;;5095294;28;20463;-72
2024/02/05 08:37:04;;;;;;;10.10;5.10;;;16.00;39.40;;;;;;5094953;28;20462;-71
2024/02/05 08:39:32;;;;;;;8.50;3.90;;;16.30;38.60;;;;;;5094695;28;20519;-71
2024/02/05 08:42:01;;;;;;;8.20;4.40;;;16.50;37.30;;;;;;5092079;28;20915;-71
2024/02/05 08:44:27;;;;;;;10.27;4.40;;;16.80;37.20;;;;;;5094353;28;20923;-71
2024/02/05 08:46:55;;;;;;;10.03;4.43;;;17.10;36.50;;;;;;5094938;28;20526;-71
2024/02/05 08:49:22;;;;;;;9.63;3.50;;;17.20;35.80;;;;;;5094708;28;20435;-71
2024/02/05 08:51:49;;;;;;;9.63;4.80;;;17.40;36.00;;;;;;5094589;28;20432;-72
2024/02/05 08:54:16;;;;;;;7.50;3.77;;;17.60;35.50;;;;;;5094669;28;20433;-71
2024/02/05 08:56:43;;;;;;;9.00;4.30;;;17.80;35.00;;;;;;5094443;28;20520;-71
2024/02/05 08:59:11;;;;;;;9.27;4.07;;;18.00;34.30;;;;;;5094820;28;20436;-71
2024/02/05 09:01:38;;;;;;;9.20;4.03;;;18.20;33.90;;;;;;5094731;28;20815;-72
2024/02/05 09:04:06;;;;;;;11.03;3.47;;;18.40;33.90;;;;;;5094553;28;20856;-71
2024/02/05 09:06:32;;;;;;;7.63;3.90;;;18.60;33.00;;;;;;5094603;28;20446;-71
2024/02/05 09:08:59;;;;;;;8.00;3.80;;;18.90;33.20;;;;;;5087801;28;20517;-72
2024/02/05 09:11:31;;;;;;;7.37;4.30;;;19.10;32.40;;;;;;5074355;28;20430;-71
2024/02/05 09:14:00;;;;;;;8.90;3.60;;;19.30;32.20;;;;;;5074046;28;20511;-72
2024/02/05 09:16:28;;;;;;;7.13;3.40;;;19.40;32.00;;;;;;5074140;28;20905;-72
2024/02/05 09:18:55;;;;;;;12.37;3.57;;;19.60;32.10;;;;;;5087636;28;20497;-71
2024/02/05 09:21:22;;;;;;;6.80;3.47;;;19.90;31.50;;;;;;5094356;28;20518;-72
2024/02/05 09:23:49;;;;;;;8.93;3.80;;;20.10;31.30;;;;;;5094345;28;20485;-72
2024/02/05 09:26:20;;;;;;;8.13;4.80;;;20.40;31.00;;;;;;5093934;28;20983;-72
2024/02/05 09:28:47;;;;;;;10.00;4.20;;;20.60;30.80;;;;;;5093699;28;20508;-72
2024/02/05 09:31:14;;;;;;;10.80;4.30;;;20.80;30.00;;;;;;5093823;28;20453;-72
2024/02/05 09:33:42;;;;;;;8.57;3.30;;;21.00;30.20;;;;;;5093914;28;20533;-71
2024/02/05 09:36:09;;;;;;;10.93;4.27;;;21.20;29.90;;;;;;5093598;28;20566;-72
2024/02/05 09:38:37;;;;;;;8.80;3.90;;;21.40;29.30;;;;;;5093912;28;20467;-72
2024/02/05 09:41:05;;;;;;;9.03;4.40;;;21.60;29.40;;;;;;5093637;28;20522;-72
2024/02/05 09:43:33;;;;;;;8.83;4.13;;;21.70;28.70;;;;;;5093985;28;20526;-72
2024/02/05 09:46:06;;;;;;;7.00;3.60;;;21.90;28.60;;;;;;5093946;28;20431;-72
2024/02/05 09:48:34;;;;;;;10.77;3.90;;;22.00;28.70;;;;;;5093908;28;20510;-72
2024/02/05 09:51:03;;;;;;;4.97;3.33;;;22.20;28.10;;;;;;5093186;28;20431;-72
2024/02/05 09:53:32;;;;;;;17.93;4.53;;;22.20;28.00;;;;;;5093728;28;20519;-72
2024/02/05 09:55:59;;;;;;;6.40;4.27;;;22.30;28.00;;;;;;5093732;28;20475;-72
2024/02/05 09:58:27;;;;;;;9.27;4.77;;;22.40;27.90;;;;;;5093275;28;20480;-72
2024/02/05 10:00:58;;;;;;;10.00;4.77;;;22.40;27.60;;;;;;5093350;28;20526;-72
2024/02/05 10:03:27;;;;;;;7.50;4.00;;;22.60;27.10;;;;;;5093661;28;20451;-71
2024/02/05 10:05:58;;;;;;;6.67;3.20;;;22.50;26.90;;;;;;5093395;28;21005;-72
2024/02/05 10:08:28;;;;;;;9.43;3.63;;;22.40;27.00;;;;;;5093626;28;20506;-72
2024/02/05 10:10:57;;;;;;;7.47;3.40;;;22.30;27.00;;;;;;5093196;28;20502;-72
2024/02/05 10:13:25;;;;;;;6.63;2.93;;;22.10;27.60;;;;;;5090866;28;20471;-71
2024/02/05 10:15:52;;;;;;;8.87;3.60;;;22.30;28.00;;;;;;5093540;28;20550;-72
2024/02/05 10:18:19;;;;;;;6.00;3.57;;;22.60;27.40;;;;;;5092976;28;20514;-72
2024/02/05 10:20:47;;;;;;;9.67;4.00;;;22.80;27.80;;;;;;5092913;28;20522;-72
2024/02/05 10:23:14;;;;;;;8.73;5.03;;;23.10;27.60;;;;;;5093174;28;20485;-72
2024/02/05 10:25:42;;;;;;;11.50;4.20;;;23.30;27.30;;;;;;5093236;28;20518;-72
2024/02/05 10:28:10;;;;;;;7.00;4.33;;;23.50;27.70;;;;;;5093281;28;20522;-72
2024/02/05 10:30:36;;;;;;;9.50;4.30;;;23.80;27.00;;;;;;5093627;28;20843;-72
2024/02/05 10:33:04;;;;;;;7.83;4.10;;;24.10;26.90;;;;;;5093699;28;20526;-72
2024/02/05 10:35:31;;;;;;;9.33;3.50;;;24.20;26.50;;;;;;5093190;28;20474;-72
2024/02/05 10:38:09;;;;;;;7.40;3.60;;;24.50;26.70;;;;;;5093499;28;20466;-72
2024/02/05 10:40:37;;;;;;;14.80;4.63;;;24.70;26.20;;;;;;5093503;28;20507;-72
2024/02/05 10:43:08;;;;;;;9.17;3.80;;;25.00;26.00;;;;;;5093398;28;20789;-73
2024/02/05 10:45:38;;;;;;;5.43;2.80;;;25.30;25.10;;;;;;5093336;28;20427;-73
2024/02/05 10:48:06;;;;;;;6.83;3.50;;;25.60;25.30;;;;;;5092985;28;20492;-72
2024/02/05 10:50:33;;;;;;;10.90;3.37;;;26.00;25.40;;;;;;5093465;28;20742;-73
2024/02/05 10:53:00;;;;;;;13.70;3.57;;;26.30;25.00;;;;;;5092688;28;20496;-72
2024/02/05 10:55:28;;;;;;;10.53;3.30;;;26.70;24.50;;;;;;5092838;28;20550;-73
2024/02/05 10:57:57;;;;;;;11.07;4.10;;;27.00;23.80;;;;;;5092962;28;20526;-72
2024/02/05 11:00:25;;;;;;;10.20;4.47;;;27.40;23.00;;;;;;5093096;28;20475;-72
2024/02/05 11:03:00;;;;;;;11.10;3.90;;;27.70;22.80;;;;;;5093583;28;20431;-72
2024/02/05 11:05:28;;;;;;;10.47;3.90;;;27.90;21.80;;;;;;5096384;28;20458;-73
2024/02/05 11:08:03;;;;;;;7.07;3.20;;;28.20;21.20;;;;;;5097102;28;20431;-73
2024/02/05 11:10:32;;;;;;;11.27;3.37;;;28.40;20.80;;;;;;5096479;28;20509;-73
2024/02/05 11:13:00;;;;;;;12.27;3.60;;;28.60;19.70;;;;;;5096468;28;20437;-73
2024/02/05 11:15:32;;;;;;;8.80;3.47;;;28.70;19.00;;;;;;5096399;28;20525;-73
2024/02/05 11:18:04;;;;;;;8.33;3.03;;;28.80;18.00;;;;;;5096746;28;20549;-73
2024/02/05 11:20:31;;;;;;;15.67;3.43;;;28.90;17.20;;;;;;5096681;28;20454;-72
2024/02/05 11:22:59;;;;;;;11.57;3.53;;;29.00;16.00;;;;;;5096666;28;20480;-72
2024/02/05 11:25:27;;;;;;;11.93;3.73;;;29.10;16.40;;;;;;5096592;28;20750;-73
2024/02/05 11:27:54;;;;;;;14.43;4.30;;;29.20;16.40;;;;;;5096877;28;20430;-73
2024/02/05 11:30:21;;;;;;;11.07;3.40;;;29.30;15.60;;;;;;5096643;28;20828;-73
2024/02/05 11:32:50;;;;;;;19.33;4.07;;;29.30;15.40;;;;;;5096434;28;20435;-73
2024/02/05 11:35:17;;;;;;;8.70;3.30;;;29.40;15.10;;;;;;5096427;28;20510;-73
2024/02/05 11:37:44;;;;;;;15.03;3.27;;;29.30;14.40;;;;;;5096498;28;20462;-73
2024/02/05 11:40:23;;;;;;;11.60;3.40;;;29.30;14.30;;;;;;5096475;28;20506;-72
2024/02/05 11:43:04;;;;;;;12.67;3.30;;;29.30;14.00;;;;;;5096303;28;20474;-73
2024/02/05 11:45:32;;;;;;;5.70;2.70;;;29.30;14.30;;;;;;5096223;28;20494;-72
2024/02/05 11:48:01;;;;;;;10.50;3.10;;;29.30;14.10;;;;;;5095891;28;20927;-72
2024/02/05 11:50:28;;;;;;;11.07;2.20;;;29.40;14.10;;;;;;5096154;28;20519;-72
2024/02/05 11:52:56;;;;;;;16.07;3.33;;;29.50;13.90;;;;;;5094508;28;20780;-72
2024/02/05 11:55:25;;;;;;;10.83;4.53;;;29.30;13.20;;;;;;5096112;28;20423;-73
2024/02/05 11:57:52;;;;;;;15.00;3.30;;;29.20;13.10;;;;;;5096008;28;20435;-72
2024/02/05 12:00:19;;;;;;;9.30;4.00;;;29.00;13.50;;;;;;5095944;28;20431;-72
2024/02/05 12:02:47;;;;;;;9.37;2.83;;;28.80;13.80;;;;;;5095984;28;20431;-72
2024/02/05 12:05:17;;;;;;;11.40;3.07;;;28.70;13.70;;;;;;5095575;28;20428;-72
2024/02/05 12:07:45;;;;;;;14.40;2.90;;;28.60;14.10;;;;;;5095604;28;20462;-71
2024/02/05 12:10:13;;;;;;;13.97;3.17;;;28.60;14.00;;;;;;5096085;28;20500;-73
2024/02/05 12:12:40;;;;;;;14.23;3.37;;;28.50;14.30;;;;;;5095497;28;20423;-72
2024/02/05 12:15:18;;;;;;;10.33;3.70;;;28.60;14.40;;;;;;5094723;28;20518;-72
2024/02/05 12:17:45;;;;;;;9.10;3.77;;;28.70;14.70;;;;;;5095487;28;20455;-72
2024/02/05 12:20:21;;;;;;;14.73;3.47;;;28.90;14.80;;;;;;5095377;28;20514;-73
2024/02/05 12:22:49;;;;;;;10.23;4.00;;;29.00;14.80;;;;;;5095678;28;20781;-72
2024/02/05 12:25:16;;;;;;;15.50;3.37;;;29.00;14.70;;;;;;5095582;28;20537;-73
2024/02/05 12:27:43;;;;;;;11.37;2.80;;;29.10;14.50;;;;;;5095214;28;20470;-72
2024/02/05 12:30:11;;;;;;;10.30;3.70;;;29.20;14.70;;;;;;5095124;28;21003;-72
2024/02/05 12:32:38;;;;;;;7.90;2.70;;;29.20;13.90;;;;;;5087125;28;20477;-73
2024/02/05 12:35:06;;;;;;;7.87;2.40;;;29.10;13.80;;;;;;5075192;28;20459;-72
2024/02/05 12:37:34;;;;;;;10.13;3.00;;;29.10;13.90;;;;;;5075098;28;20514;-72
2024/02/05 12:40:03;;;;;;;13.23;4.13;;;29.00;13.80;;;;;;5074655;28;20482;-72
2024/02/05 12:42:30;;;;;;;11.90;2.50;;;29.00;13.90;;;;;;5074640;28;20519;-72
2024/02/05 12:44:57;;;;;;;10.20;3.13;;;28.90;13.70;;;;;;5074433;28;20523;-72
2024/02/05 12:47:25;;;;;;;9.23;2.40;;;28.90;14.00;;;;;;5074784;28;20470;-72
2024/02/05 12:49:53;;;;;;;12.00;2.70;;;28.90;14.40;;;;;;5074802;28;20519;-72